sensor_id;sensor_type;location;lat;lon;timestamp;temperature;humidity
38398;DHT22;24179;52.094;4.408;2022-07-18T00:00:54;17.10;99.90
38398;DHT22;24179;52.094;4.408;2022-07-18T00:03:54;17.10;99.90
38398;DHT22;24179;52.094;4.408;2022-07-18T00:06:54;17.10;99.90
38398;DHT22;24179;52.094;4.408;2022-07-18T00:09:56;17.00;99.90
38398;DHT22;24179;52.094;4.408;2022-07-18T00:12:57;17.00;99.90
38398;DHT22;24179;52.094;4.408;2022-07-18T00:15:59;17.00;99.90
38398;DHT22;24179;52.094;4.408;2022-07-18T00:18:59;16.90;99.90
38398;DHT22;24179;52.094;4.408;2022-07-18T00:22:00;16.90;99.90
38398;DHT22;24179;52.094;4.408;2022-07-18T00:25:02;16.90;99.90
38398;DHT22;24179;52.094;4.408;2022-07-18T00:28:02;16.90;99.90
38398;DHT22;24179;52.094;4.408;2022-07-18T00:31:03;16.80;99.90
38398;DHT22;24179;52.094;4.408;2022-07-18T00:34:04;16.80;99.90
38398;DHT22;24179;52.094;4.408;2022-07-18T00:37:04;16.70;99.90
38398;DHT22;24179;52.094;4.408;2022-07-18T00:40:05;16.70;99.90
38398;DHT22;24179;52.094;4.408;2022-07-18T00:43:06;16.70;99.90
38398;DHT22;24179;52.094;4.408;2022-07-18T00:46:06;16.70;99.90
38398;DHT22;24179;52.094;4.408;2022-07-18T00:49:07;16.60;99.90
38398;DHT22;24179;52.094;4.408;2022-07-18T00:52:07;16.60;99.90
38398;DHT22;24179;52.094;4.408;2022-07-18T00:55:08;16.60;99.90
38398;DHT22;24179;52.094;4.408;2022-07-18T00:58:09;16.60;99.90
38398;DHT22;24179;52.094;4.408;2022-07-18T01:01:13;16.50;99.90
38398;DHT22;24179;52.094;4.408;2022-07-18T01:04:31;16.40;99.90
38398;DHT22;24179;52.094;4.408;2022-07-18T01:07:33;16.50;99.90
38398;DHT22;24179;52.094;4.408;2022-07-18T01:10:33;16.40;99.90
38398;DHT22;24179;52.094;4.408;2022-07-18T01:13:34;16.40;99.90
38398;DHT22;24179;52.094;4.408;2022-07-18T01:16:35;16.40;99.90
38398;DHT22;24179;52.094;4.408;2022-07-18T01:19:35;16.30;99.90
38398;DHT22;24179;52.094;4.408;2022-07-18T01:22:36;16.30;99.90
38398;DHT22;24179;52.094;4.408;2022-07-18T01:25:37;16.30;99.90
38398;DHT22;24179;52.094;4.408;2022-07-18T01:28:38;16.20;99.90
38398;DHT22;24179;52.094;4.408;2022-07-18T01:31:39;16.20;99.90
38398;DHT22;24179;52.094;4.408;2022-07-18T01:34:39;16.10;99.90
38398;DHT22;24179;52.094;4.408;2022-07-18T01:37:40;16.10;99.90
38398;DHT22;24179;52.094;4.408;2022-07-18T01:40:40;16.10;99.90
38398;DHT22;24179;52.094;4.408;2022-07-18T01:43:41;16.10;99.90
38398;DHT22;24179;52.094;4.408;2022-07-18T01:46:42;16.00;99.90
38398;DHT22;24179;52.094;4.408;2022-07-18T01:49:43;16.00;99.90
38398;DHT22;24179;52.094;4.408;2022-07-18T01:52:43;16.00;99.90
38398;DHT22;24179;52.094;4.408;2022-07-18T01:55:43;15.90;99.90
38398;DHT22;24179;52.094;4.408;2022-07-18T01:58:44;15.90;99.90
38398;DHT22;24179;52.094;4.408;2022-07-18T02:01:44;15.80;99.90
38398;DHT22;24179;52.094;4.408;2022-07-18T02:04:45;15.80;99.90
38398;DHT22;24179;52.094;4.408;2022-07-18T02:08:01;15.80;99.90
38398;DHT22;24179;52.094;4.408;2022-07-18T02:11:01;15.70;99.90
38398;DHT22;24179;52.094;4.408;2022-07-18T02:14:02;15.70;99.90
38398;DHT22;24179;52.094;4.408;2022-07-18T02:17:03;15.70;99.90
38398;DHT22;24179;52.094;4.408;2022-07-18T02:20:08;15.60;99.90
38398;DHT22;24179;52.094;4.408;2022-07-18T02:23:08;15.60;99.90
38398;DHT22;24179;52.094;4.408;2022-07-18T02:26:09;15.60;99.90
38398;DHT22;24179;52.094;4.408;2022-07-18T02:29:10;15.50;99.90
38398;DHT22;24179;52.094;4.408;2022-07-18T02:32:10;15.50;99.90
38398;DHT22;24179;52.094;4.408;2022-07-18T02:35:11;15.50;99.90
38398;DHT22;24179;52.094;4.408;2022-07-18T02:38:11;15.40;99.90
38398;DHT22;24179;52.094;4.408;2022-07-18T02:41:12;15.40;99.90
38398;DHT22;24179;52.094;4.408;2022-07-18T02:44:12;15.40;99.90
38398;DHT22;24179;52.094;4.408;2022-07-18T02:47:13;15.40;99.90
38398;DHT22;24179;52.094;4.408;2022-07-18T02:50:13;15.30;99.90
38398;DHT22;24179;52.094;4.408;2022-07-18T02:53:14;15.30;99.90
38398;DHT22;24179;52.094;4.408;2022-07-18T02:56:14;15.30;99.90
38398;DHT22;24179;52.094;4.408;2022-07-18T02:59:15;15.30;99.90
38398;DHT22;24179;52.094;4.408;2022-07-18T03:02:15;15.30;99.90
38398;DHT22;24179;52.094;4.408;2022-07-18T03:05:16;15.30;99.90
38398;DHT22;24179;52.094;4.408;2022-07-18T03:08:16;15.30;99.90
38398;DHT22;24179;52.094;4.408;2022-07-18T03:11:17;15.20;99.90
38398;DHT22;24179;52.094;4.408;2022-07-18T03:14:17;15.30;99.90
38398;DHT22;24179;52.094;4.408;2022-07-18T03:17:18;15.20;99.90
38398;DHT22;24179;52.094;4.408;2022-07-18T03:20:18;15.20;99.90
38398;DHT22;24179;52.094;4.408;2022-07-18T03:23:19;15.10;99.90
38398;DHT22;24179;52.094;4.408;2022-07-18T03:26:19;15.10;99.90
38398;DHT22;24179;52.094;4.408;2022-07-18T03:29:20;15.10;99.90
38398;DHT22;24179;52.094;4.408;2022-07-18T03:32:20;15.10;99.90
38398;DHT22;24179;52.094;4.408;2022-07-18T03:35:21;15.00;99.90
38398;DHT22;24179;52.094;4.408;2022-07-18T03:38:21;15.00;99.90
38398;DHT22;24179;52.094;4.408;2022-07-18T03:41:22;14.90;99.90
38398;DHT22;24179;52.094;4.408;2022-07-18T03:44:22;14.90;99.90
38398;DHT22;24179;52.094;4.408;2022-07-18T03:47:23;14.90;99.90
38398;DHT22;24179;52.094;4.408;2022-07-18T03:50:23;14.90;99.90
38398;DHT22;24179;52.094;4.408;2022-07-18T03:53:24;15.00;99.90
38398;DHT22;24179;52.094;4.408;2022-07-18T03:56:24;14.90;99.90
38398;DHT22;24179;52.094;4.408;2022-07-18T03:59:25;15.00;99.90
38398;DHT22;24179;52.094;4.408;2022-07-18T04:02:25;15.00;99.90
38398;DHT22;24179;52.094;4.408;2022-07-18T04:05:26;15.00;99.90
38398;DHT22;24179;52.094;4.408;2022-07-18T04:08:27;14.90;99.90
38398;DHT22;24179;52.094;4.408;2022-07-18T04:11:28;14.90;99.90
38398;DHT22;24179;52.094;4.408;2022-07-18T04:14:28;14.90;99.90
38398;DHT22;24179;52.094;4.408;2022-07-18T04:17:29;14.90;99.90
38398;DHT22;24179;52.094;4.408;2022-07-18T04:20:29;15.00;99.90
38398;DHT22;24179;52.094;4.408;2022-07-18T04:23:29;15.00;99.90
38398;DHT22;24179;52.094;4.408;2022-07-18T04:26:30;15.00;99.90
38398;DHT22;24179;52.094;4.408;2022-07-18T04:29:30;15.00;99.90
38398;DHT22;24179;52.094;4.408;2022-07-18T04:32:32;15.00;99.90
38398;DHT22;24179;52.094;4.408;2022-07-18T04:35:33;15.00;99.90
38398;DHT22;24179;52.094;4.408;2022-07-18T04:38:36;15.00;99.90
38398;DHT22;24179;52.094;4.408;2022-07-18T04:41:37;15.10;99.90
38398;DHT22;24179;52.094;4.408;2022-07-18T04:44:39;15.10;99.90
38398;DHT22;24179;52.094;4.408;2022-07-18T04:47:39;15.20;99.90
38398;DHT22;24179;52.094;4.408;2022-07-18T04:50:40;15.20;99.90
38398;DHT22;24179;52.094;4.408;2022-07-18T04:53:40;15.30;99.90
38398;DHT22;24179;52.094;4.408;2022-07-18T04:56:41;15.40;99.90
38398;DHT22;24179;52.094;4.408;2022-07-18T04:59:41;15.40;99.90
38398;DHT22;24179;52.094;4.408;2022-07-18T05:02:45;15.50;99.90
38398;DHT22;24179;52.094;4.408;2022-07-18T05:05:45;15.50;99.90
38398;DHT22;24179;52.094;4.408;2022-07-18T05:08:46;15.70;99.90
38398;DHT22;24179;52.094;4.408;2022-07-18T05:11:46;15.70;99.90
38398;DHT22;24179;52.094;4.408;2022-07-18T05:14:46;15.80;99.90
38398;DHT22;24179;52.094;4.408;2022-07-18T05:17:47;16.00;99.90
38398;DHT22;24179;52.094;4.408;2022-07-18T05:20:47;16.20;99.90
38398;DHT22;24179;52.094;4.408;2022-07-18T05:23:48;16.30;99.90
38398;DHT22;24179;52.094;4.408;2022-07-18T05:26:48;16.50;99.90
38398;DHT22;24179;52.094;4.408;2022-07-18T05:29:49;16.70;99.90
38398;DHT22;24179;52.094;4.408;2022-07-18T05:32:50;16.90;99.90
38398;DHT22;24179;52.094;4.408;2022-07-18T05:35:52;17.10;99.90
38398;DHT22;24179;52.094;4.408;2022-07-18T05:38:52;17.30;99.90
38398;DHT22;24179;52.094;4.408;2022-07-18T05:41:53;17.50;99.90
38398;DHT22;24179;52.094;4.408;2022-07-18T05:44:53;17.60;99.90
38398;DHT22;24179;52.094;4.408;2022-07-18T05:47:54;17.90;99.90
38398;DHT22;24179;52.094;4.408;2022-07-18T05:50:54;17.90;99.90
38398;DHT22;24179;52.094;4.408;2022-07-18T05:53:55;18.10;99.90
38398;DHT22;24179;52.094;4.408;2022-07-18T05:56:55;18.30;99.90
38398;DHT22;24179;52.094;4.408;2022-07-18T05:59:56;18.40;99.90
38398;DHT22;24179;52.094;4.408;2022-07-18T06:02:56;18.60;99.90
38398;DHT22;24179;52.094;4.408;2022-07-18T06:05:57;18.80;99.90
38398;DHT22;24179;52.094;4.408;2022-07-18T06:08:57;18.90;99.90
38398;DHT22;24179;52.094;4.408;2022-07-18T06:11:58;19.00;99.90
38398;DHT22;24179;52.094;4.408;2022-07-18T06:15:00;19.20;99.90
38398;DHT22;24179;52.094;4.408;2022-07-18T06:18:01;19.40;99.90
38398;DHT22;24179;52.094;4.408;2022-07-18T06:21:02;19.50;99.90
38398;DHT22;24179;52.094;4.408;2022-07-18T06:24:03;19.50;99.90
38398;DHT22;24179;52.094;4.408;2022-07-18T06:27:03;19.50;99.90
38398;DHT22;24179;52.094;4.408;2022-07-18T06:30:04;19.40;99.90
38398;DHT22;24179;52.094;4.408;2022-07-18T06:33:06;19.40;99.90
38398;DHT22;24179;52.094;4.408;2022-07-18T06:36:08;19.50;99.90
38398;DHT22;24179;52.094;4.408;2022-07-18T06:39:11;19.70;99.90
38398;DHT22;24179;52.094;4.408;2022-07-18T06:42:16;20.10;99.90
38398;DHT22;24179;52.094;4.408;2022-07-18T06:45:17;20.40;99.90
38398;DHT22;24179;52.094;4.408;2022-07-18T06:48:18;20.90;99.90
38398;DHT22;24179;52.094;4.408;2022-07-18T06:51:18;21.60;99.90
38398;DHT22;24179;52.094;4.408;2022-07-18T06:54:20;22.10;99.90
38398;DHT22;24179;52.094;4.408;2022-07-18T06:57:26;22.60;99.90
38398;DHT22;24179;52.094;4.408;2022-07-18T07:00:27;23.80;99.90
38398;DHT22;24179;52.094;4.408;2022-07-18T07:03:27;24.90;99.90
38398;DHT22;24179;52.094;4.408;2022-07-18T07:06:28;25.90;99.90
38398;DHT22;24179;52.094;4.408;2022-07-18T07:09:28;26.90;99.90
38398;DHT22;24179;52.094;4.408;2022-07-18T07:12:29;27.90;99.80
38398;DHT22;24179;52.094;4.408;2022-07-18T07:15:29;28.20;96.80
38398;DHT22;24179;52.094;4.408;2022-07-18T07:18:30;28.90;98.10
38398;DHT22;24179;52.094;4.408;2022-07-18T07:21:30;29.50;95.90
38398;DHT22;24179;52.094;4.408;2022-07-18T07:24:31;29.90;94.70
38398;DHT22;24179;52.094;4.408;2022-07-18T07:27:31;29.30;90.40
38398;DHT22;24179;52.094;4.408;2022-07-18T07:30:32;28.80;91.40
38398;DHT22;24179;52.094;4.408;2022-07-18T07:33:33;29.00;90.40
38398;DHT22;24179;52.094;4.408;2022-07-18T07:36:34;29.30;87.70
38398;DHT22;24179;52.094;4.408;2022-07-18T07:39:34;29.10;87.40
38398;DHT22;24179;52.094;4.408;2022-07-18T07:42:35;29.10;87.00
38398;DHT22;24179;52.094;4.408;2022-07-18T07:45:35;29.50;86.90
38398;DHT22;24179;52.094;4.408;2022-07-18T07:48:36;30.30;86.50
38398;DHT22;24179;52.094;4.408;2022-07-18T07:51:36;30.90;86.30
38398;DHT22;24179;52.094;4.408;2022-07-18T07:54:37;31.70;83.70
38398;DHT22;24179;52.094;4.408;2022-07-18T07:57:37;32.20;82.20
38398;DHT22;24179;52.094;4.408;2022-07-18T08:00:38;32.10;79.60
38398;DHT22;24179;52.094;4.408;2022-07-18T08:03:39;32.10;79.20
38398;DHT22;24179;52.094;4.408;2022-07-18T08:06:39;31.90;77.00
38398;DHT22;24179;52.094;4.408;2022-07-18T08:09:40;32.00;76.20
38398;DHT22;24179;52.094;4.408;2022-07-18T08:12:40;32.20;78.70
38398;DHT22;24179;52.094;4.408;2022-07-18T08:15:41;32.70;77.80
38398;DHT22;24179;52.094;4.408;2022-07-18T08:18:41;32.80;74.90
38398;DHT22;24179;52.094;4.408;2022-07-18T08:21:43;32.80;75.60
38398;DHT22;24179;52.094;4.408;2022-07-18T08:24:43;33.20;74.00
38398;DHT22;24179;52.094;4.408;2022-07-18T08:27:44;33.20;70.60
38398;DHT22;24179;52.094;4.408;2022-07-18T08:30:44;33.00;70.80
38398;DHT22;24179;52.094;4.408;2022-07-18T08:33:45;33.10;71.60
38398;DHT22;24179;52.094;4.408;2022-07-18T08:36:45;33.30;69.70
38398;DHT22;24179;52.094;4.408;2022-07-18T08:39:46;34.10;70.10
38398;DHT22;24179;52.094;4.408;2022-07-18T08:42:49;34.60;69.40
38398;DHT22;24179;52.094;4.408;2022-07-18T08:45:50;34.90;68.50
38398;DHT22;24179;52.094;4.408;2022-07-18T08:48:51;34.60;68.30
38398;DHT22;24179;52.094;4.408;2022-07-18T08:51:54;34.70;68.10
38398;DHT22;24179;52.094;4.408;2022-07-18T08:54:55;34.60;66.70
38398;DHT22;24179;52.094;4.408;2022-07-18T08:57:56;35.00;69.00
38398;DHT22;24179;52.094;4.408;2022-07-18T09:00:57;35.90;65.80
38398;DHT22;24179;52.094;4.408;2022-07-18T09:03:58;36.20;65.80
38398;DHT22;24179;52.094;4.408;2022-07-18T09:07:26;36.50;66.90
38398;DHT22;24179;52.094;4.408;2022-07-18T09:10:28;36.10;66.80
38398;DHT22;24179;52.094;4.408;2022-07-18T09:13:40;35.80;64.60
38398;DHT22;24179;52.094;4.408;2022-07-18T09:16:42;36.20;64.40
38398;DHT22;24179;52.094;4.408;2022-07-18T09:19:55;36.30;64.60
38398;DHT22;24179;52.094;4.408;2022-07-18T09:22:55;36.60;66.20
38398;DHT22;24179;52.094;4.408;2022-07-18T09:25:56;36.40;62.10
38398;DHT22;24179;52.094;4.408;2022-07-18T09:28:57;36.10;61.20
38398;DHT22;24179;52.094;4.408;2022-07-18T09:31:57;35.40;62.90
38398;DHT22;24179;52.094;4.408;2022-07-18T09:35:03;35.60;61.40
38398;DHT22;24179;52.094;4.408;2022-07-18T09:38:08;35.70;62.30
38398;DHT22;24179;52.094;4.408;2022-07-18T09:41:10;35.90;61.40
38398;DHT22;24179;52.094;4.408;2022-07-18T09:44:14;36.50;60.90
38398;DHT22;24179;52.094;4.408;2022-07-18T09:47:15;36.30;61.60
38398;DHT22;24179;52.094;4.408;2022-07-18T09:50:20;36.10;59.00
38398;DHT22;24179;52.094;4.408;2022-07-18T09:56:25;37.20;60.10
38398;DHT22;24179;52.094;4.408;2022-07-18T09:59:26;36.80;58.40
38398;DHT22;24179;52.094;4.408;2022-07-18T10:02:26;36.10;57.40
38398;DHT22;24179;52.094;4.408;2022-07-18T10:05:28;35.10;57.20
38398;DHT22;24179;52.094;4.408;2022-07-18T10:08:29;35.60;58.20
38398;DHT22;24179;52.094;4.408;2022-07-18T10:11:30;36.20;56.30
38398;DHT22;24179;52.094;4.408;2022-07-18T10:14:30;36.40;57.80
38398;DHT22;24179;52.094;4.408;2022-07-18T10:17:32;36.50;56.10
38398;DHT22;24179;52.094;4.408;2022-07-18T10:20:36;36.30;53.90
38398;DHT22;24179;52.094;4.408;2022-07-18T10:26:38;35.90;53.90
38398;DHT22;24179;52.094;4.408;2022-07-18T10:29:39;36.60;53.80
38398;DHT22;24179;52.094;4.408;2022-07-18T10:32:39;37.60;53.20
38398;DHT22;24179;52.094;4.408;2022-07-18T10:35:59;38.30;52.90
38398;DHT22;24179;52.094;4.408;2022-07-18T10:45:25;38.40;54.10
38398;DHT22;24179;52.094;4.408;2022-07-18T10:48:49;38.50;52.20
38398;DHT22;24179;52.094;4.408;2022-07-18T10:51:48;38.30;51.40
38398;DHT22;24179;52.094;4.408;2022-07-18T11:01:02;37.80;49.70
38398;DHT22;24179;52.094;4.408;2022-07-18T11:04:39;37.70;49.80
38398;DHT22;24179;52.094;4.408;2022-07-18T11:07:32;38.00;50.40
38398;DHT22;24179;52.094;4.408;2022-07-18T11:13:43;38.60;48.60
38398;DHT22;24179;52.094;4.408;2022-07-18T11:17:04;39.10;47.90
38398;DHT22;24179;52.094;4.408;2022-07-18T11:23:25;39.10;48.50
38398;DHT22;24179;52.094;4.408;2022-07-18T11:26:26;38.50;47.70
38398;DHT22;24179;52.094;4.408;2022-07-18T11:29:26;38.70;47.60
38398;DHT22;24179;52.094;4.408;2022-07-18T11:32:27;39.10;48.00
38398;DHT22;24179;52.094;4.408;2022-07-18T11:35:27;39.50;47.20
38398;DHT22;24179;52.094;4.408;2022-07-18T11:38:29;39.10;48.10
38398;DHT22;24179;52.094;4.408;2022-07-18T11:41:29;38.60;48.10
38398;DHT22;24179;52.094;4.408;2022-07-18T11:44:30;38.30;47.70
38398;DHT22;24179;52.094;4.408;2022-07-18T11:47:30;39.30;47.30
38398;DHT22;24179;52.094;4.408;2022-07-18T11:50:35;39.80;46.70
38398;DHT22;24179;52.094;4.408;2022-07-18T11:53:36;39.90;49.10
38398;DHT22;24179;52.094;4.408;2022-07-18T11:56:46;39.30;46.70
38398;DHT22;24179;52.094;4.408;2022-07-18T11:59:47;38.50;47.60
38398;DHT22;24179;52.094;4.408;2022-07-18T12:06:13;38.20;47.20
38398;DHT22;24179;52.094;4.408;2022-07-18T12:09:22;38.90;47.70
38398;DHT22;24179;52.094;4.408;2022-07-18T12:12:26;38.70;46.20
38398;DHT22;24179;52.094;4.408;2022-07-18T12:15:37;38.70;47.80
38398;DHT22;24179;52.094;4.408;2022-07-18T12:18:37;39.30;49.40
38398;DHT22;24179;52.094;4.408;2022-07-18T12:21:51;39.00;50.50
38398;DHT22;24179;52.094;4.408;2022-07-18T12:24:52;39.20;52.40
38398;DHT22;24179;52.094;4.408;2022-07-18T12:27:54;40.40;52.00
38398;DHT22;24179;52.094;4.408;2022-07-18T12:30:55;40.50;52.30
38398;DHT22;24179;52.094;4.408;2022-07-18T12:34:08;41.10;52.30
38398;DHT22;24179;52.094;4.408;2022-07-18T12:37:09;41.80;52.20
38398;DHT22;24179;52.094;4.408;2022-07-18T12:40:10;41.90;50.80
38398;DHT22;24179;52.094;4.408;2022-07-18T12:46:12;41.80;51.50
38398;DHT22;24179;52.094;4.408;2022-07-18T12:49:12;41.70;51.00
38398;DHT22;24179;52.094;4.408;2022-07-18T12:52:13;41.70;50.90
38398;DHT22;24179;52.094;4.408;2022-07-18T12:55:14;41.80;50.50
38398;DHT22;24179;52.094;4.408;2022-07-18T12:58:14;41.30;50.50
38398;DHT22;24179;52.094;4.408;2022-07-18T13:01:15;41.20;50.50
38398;DHT22;24179;52.094;4.408;2022-07-18T13:04:15;40.90;49.80
38398;DHT22;24179;52.094;4.408;2022-07-18T13:07:16;40.50;49.70
38398;DHT22;24179;52.094;4.408;2022-07-18T13:10:16;40.20;50.10
38398;DHT22;24179;52.094;4.408;2022-07-18T13:13:18;40.60;50.40
38398;DHT22;24179;52.094;4.408;2022-07-18T13:16:21;40.00;50.00
38398;DHT22;24179;52.094;4.408;2022-07-18T13:19:22;39.90;51.10
38398;DHT22;24179;52.094;4.408;2022-07-18T13:22:22;39.90;49.10
38398;DHT22;24179;52.094;4.408;2022-07-18T13:25:23;40.40;51.10
38398;DHT22;24179;52.094;4.408;2022-07-18T13:28:23;40.40;50.60
38398;DHT22;24179;52.094;4.408;2022-07-18T13:31:24;40.30;50.70
38398;DHT22;24179;52.094;4.408;2022-07-18T13:34:24;40.80;51.40
38398;DHT22;24179;52.094;4.408;2022-07-18T13:37:25;40.70;50.10
38398;DHT22;24179;52.094;4.408;2022-07-18T13:40:25;40.60;50.80
38398;DHT22;24179;52.094;4.408;2022-07-18T13:43:26;40.90;50.60
38398;DHT22;24179;52.094;4.408;2022-07-18T13:46:26;41.40;50.20
38398;DHT22;24179;52.094;4.408;2022-07-18T13:49:27;41.60;50.10
38398;DHT22;24179;52.094;4.408;2022-07-18T13:52:27;41.10;49.80
38398;DHT22;24179;52.094;4.408;2022-07-18T13:55:28;40.80;50.10
38398;DHT22;24179;52.094;4.408;2022-07-18T13:58:28;40.50;49.90
38398;DHT22;24179;52.094;4.408;2022-07-18T14:01:29;40.50;50.30
38398;DHT22;24179;52.094;4.408;2022-07-18T14:04:29;40.60;51.60
38398;DHT22;24179;52.094;4.408;2022-07-18T14:07:30;41.20;51.10
38398;DHT22;24179;52.094;4.408;2022-07-18T14:10:31;41.30;50.30
38398;DHT22;24179;52.094;4.408;2022-07-18T14:13:32;41.00;50.90
38398;DHT22;24179;52.094;4.408;2022-07-18T14:16:32;41.20;50.10
38398;DHT22;24179;52.094;4.408;2022-07-18T14:19:33;41.20;49.60
38398;DHT22;24179;52.094;4.408;2022-07-18T14:22:37;41.40;50.00
38398;DHT22;24179;52.094;4.408;2022-07-18T14:25:38;42.00;50.00
38398;DHT22;24179;52.094;4.408;2022-07-18T14:28:38;42.30;50.40
38398;DHT22;24179;52.094;4.408;2022-07-18T14:31:39;42.50;48.90
38398;DHT22;24179;52.094;4.408;2022-07-18T14:34:41;42.40;48.90
38398;DHT22;24179;52.094;4.408;2022-07-18T14:37:41;42.20;49.10
38398;DHT22;24179;52.094;4.408;2022-07-18T14:40:42;41.80;48.50
38398;DHT22;24179;52.094;4.408;2022-07-18T14:43:42;41.70;50.10
38398;DHT22;24179;52.094;4.408;2022-07-18T14:46:43;41.80;49.70
38398;DHT22;24179;52.094;4.408;2022-07-18T14:49:43;41.70;48.60
38398;DHT22;24179;52.094;4.408;2022-07-18T14:52:43;41.30;49.40
38398;DHT22;24179;52.094;4.408;2022-07-18T14:55:44;41.10;48.90
38398;DHT22;24179;52.094;4.408;2022-07-18T14:58:45;41.30;47.90
38398;DHT22;24179;52.094;4.408;2022-07-18T15:01:45;41.00;48.30
38398;DHT22;24179;52.094;4.408;2022-07-18T15:04:46;41.40;49.30
38398;DHT22;24179;52.094;4.408;2022-07-18T15:07:46;41.30;48.80
38398;DHT22;24179;52.094;4.408;2022-07-18T15:10:47;41.30;48.80
38398;DHT22;24179;52.094;4.408;2022-07-18T15:13:47;41.70;48.80
38398;DHT22;24179;52.094;4.408;2022-07-18T15:16:48;42.20;49.60
38398;DHT22;24179;52.094;4.408;2022-07-18T15:19:48;42.30;48.30
38398;DHT22;24179;52.094;4.408;2022-07-18T15:22:49;42.30;49.00
38398;DHT22;24179;52.094;4.408;2022-07-18T15:25:49;42.30;48.50
38398;DHT22;24179;52.094;4.408;2022-07-18T15:28:50;42.40;48.80
38398;DHT22;24179;52.094;4.408;2022-07-18T15:31:50;42.20;48.80
38398;DHT22;24179;52.094;4.408;2022-07-18T15:34:51;42.30;49.10
38398;DHT22;24179;52.094;4.408;2022-07-18T15:37:51;42.00;48.00
38398;DHT22;24179;52.094;4.408;2022-07-18T15:40:52;42.00;48.10
38398;DHT22;24179;52.094;4.408;2022-07-18T15:43:52;41.60;48.60
38398;DHT22;24179;52.094;4.408;2022-07-18T15:46:53;41.50;49.10
38398;DHT22;24179;52.094;4.408;2022-07-18T15:49:53;41.50;49.10
38398;DHT22;24179;52.094;4.408;2022-07-18T15:52:54;41.70;48.70
38398;DHT22;24179;52.094;4.408;2022-07-18T15:55:54;41.70;49.80
38398;DHT22;24179;52.094;4.408;2022-07-18T15:58:55;41.70;49.50
38398;DHT22;24179;52.094;4.408;2022-07-18T16:01:55;41.70;48.40
38398;DHT22;24179;52.094;4.408;2022-07-18T16:04:56;41.70;48.70
38398;DHT22;24179;52.094;4.408;2022-07-18T16:07:56;41.70;49.10
38398;DHT22;24179;52.094;4.408;2022-07-18T16:11:01;41.80;48.10
38398;DHT22;24179;52.094;4.408;2022-07-18T16:14:02;41.80;48.90
38398;DHT22;24179;52.094;4.408;2022-07-18T16:17:02;41.40;48.50
38398;DHT22;24179;52.094;4.408;2022-07-18T16:20:03;41.30;49.20
38398;DHT22;24179;52.094;4.408;2022-07-18T16:23:04;41.40;48.90
38398;DHT22;24179;52.094;4.408;2022-07-18T16:26:05;41.30;49.40
38398;DHT22;24179;52.094;4.408;2022-07-18T16:29:05;41.30;49.90
38398;DHT22;24179;52.094;4.408;2022-07-18T16:32:06;41.20;48.50
38398;DHT22;24179;52.094;4.408;2022-07-18T16:35:06;40.60;49.30
38398;DHT22;24179;52.094;4.408;2022-07-18T16:38:07;40.50;49.70
38398;DHT22;24179;52.094;4.408;2022-07-18T16:41:07;40.10;49.90
38398;DHT22;24179;52.094;4.408;2022-07-18T16:44:08;40.20;49.30
38398;DHT22;24179;52.094;4.408;2022-07-18T16:47:09;39.90;49.70
38398;DHT22;24179;52.094;4.408;2022-07-18T16:50:10;39.30;49.20
38398;DHT22;24179;52.094;4.408;2022-07-18T16:53:11;38.50;50.50
38398;DHT22;24179;52.094;4.408;2022-07-18T16:56:12;37.40;51.00
38398;DHT22;24179;52.094;4.408;2022-07-18T16:59:13;36.10;51.50
38398;DHT22;24179;52.094;4.408;2022-07-18T17:02:14;35.20;52.20
38398;DHT22;24179;52.094;4.408;2022-07-18T17:05:15;34.40;53.40
38398;DHT22;24179;52.094;4.408;2022-07-18T17:08:17;33.90;53.70
38398;DHT22;24179;52.094;4.408;2022-07-18T17:11:18;33.70;54.50
38398;DHT22;24179;52.094;4.408;2022-07-18T17:14:18;33.40;54.70
38398;DHT22;24179;52.094;4.408;2022-07-18T17:17:20;33.20;55.30
38398;DHT22;24179;52.094;4.408;2022-07-18T17:20:20;32.90;55.50
38398;DHT22;24179;52.094;4.408;2022-07-18T17:23:21;32.70;55.60
38398;DHT22;24179;52.094;4.408;2022-07-18T17:26:22;32.70;55.30
38398;DHT22;24179;52.094;4.408;2022-07-18T17:29:23;32.60;55.70
38398;DHT22;24179;52.094;4.408;2022-07-18T17:32:24;32.60;56.30
38398;DHT22;24179;52.094;4.408;2022-07-18T17:35:25;32.40;56.90
38398;DHT22;24179;52.094;4.408;2022-07-18T17:38:26;32.30;57.70
38398;DHT22;24179;52.094;4.408;2022-07-18T17:41:26;32.20;57.20
38398;DHT22;24179;52.094;4.408;2022-07-18T17:44:27;32.00;57.90
38398;DHT22;24179;52.094;4.408;2022-07-18T17:47:28;31.80;58.00
38398;DHT22;24179;52.094;4.408;2022-07-18T17:50:31;31.60;58.30
38398;DHT22;24179;52.094;4.408;2022-07-18T17:53:32;31.40;57.90
38398;DHT22;24179;52.094;4.408;2022-07-18T17:56:33;31.30;59.40
38398;DHT22;24179;52.094;4.408;2022-07-18T17:59:35;31.10;59.50
38398;DHT22;24179;52.094;4.408;2022-07-18T18:02:36;31.00;59.40
38398;DHT22;24179;52.094;4.408;2022-07-18T18:05:36;30.80;59.80
38398;DHT22;24179;52.094;4.408;2022-07-18T18:08:37;30.70;60.00
38398;DHT22;24179;52.094;4.408;2022-07-18T18:11:39;30.60;60.00
38398;DHT22;24179;52.094;4.408;2022-07-18T18:14:39;30.60;60.20
38398;DHT22;24179;52.094;4.408;2022-07-18T18:17:40;30.50;60.50
38398;DHT22;24179;52.094;4.408;2022-07-18T18:20:40;30.40;62.30
38398;DHT22;24179;52.094;4.408;2022-07-18T18:23:41;30.20;60.30
38398;DHT22;24179;52.094;4.408;2022-07-18T18:26:41;30.10;61.40
38398;DHT22;24179;52.094;4.408;2022-07-18T18:29:42;30.10;62.20
38398;DHT22;24179;52.094;4.408;2022-07-18T18:32:43;30.00;62.50
38398;DHT22;24179;52.094;4.408;2022-07-18T18:35:44;29.90;61.60
38398;DHT22;24179;52.094;4.408;2022-07-18T18:38:44;29.90;63.00
38398;DHT22;24179;52.094;4.408;2022-07-18T18:41:45;29.80;64.00
38398;DHT22;24179;52.094;4.408;2022-07-18T18:44:45;29.80;64.80
38398;DHT22;24179;52.094;4.408;2022-07-18T18:47:46;29.70;64.50
38398;DHT22;24179;52.094;4.408;2022-07-18T18:50:47;29.60;64.60
38398;DHT22;24179;52.094;4.408;2022-07-18T18:53:47;29.50;65.20
38398;DHT22;24179;52.094;4.408;2022-07-18T18:56:48;29.40;66.60
38398;DHT22;24179;52.094;4.408;2022-07-18T18:59:48;29.30;66.80
38398;DHT22;24179;52.094;4.408;2022-07-18T19:02:50;29.20;68.50
38398;DHT22;24179;52.094;4.408;2022-07-18T19:05:50;29.20;69.60
38398;DHT22;24179;52.094;4.408;2022-07-18T19:08:54;29.00;71.90
38398;DHT22;24179;52.094;4.408;2022-07-18T19:11:54;28.90;73.70
38398;DHT22;24179;52.094;4.408;2022-07-18T19:14:55;28.70;74.80
38398;DHT22;24179;52.094;4.408;2022-07-18T19:17:56;28.40;75.90
38398;DHT22;24179;52.094;4.408;2022-07-18T19:20:56;28.30;76.80
38398;DHT22;24179;52.094;4.408;2022-07-18T19:23:57;28.10;76.50
38398;DHT22;24179;52.094;4.408;2022-07-18T19:26:57;27.90;76.00
38398;DHT22;24179;52.094;4.408;2022-07-18T19:29:58;27.70;76.10
38398;DHT22;24179;52.094;4.408;2022-07-18T19:32:59;27.50;76.70
38398;DHT22;24179;52.094;4.408;2022-07-18T19:36:00;27.40;77.60